createdAt,value
2022-08-17T00:00:33.294Z,91.57
2022-08-17T00:03:02.855Z,92.07
2022-08-17T00:05:32.596Z,93.19
2022-08-17T00:08:00.135Z,93.46
2022-08-17T00:10:27.961Z,93.79
2022-08-17T00:12:57.513Z,93.33
2022-08-17T00:15:26.377Z,92.73
2022-08-17T00:17:56.592Z,92.73
2022-08-17T00:20:30.589Z,93.11
2022-08-17T00:23:10.637Z,93.62
2022-08-17T00:25:38.487Z,93.71
2022-08-17T00:28:06.384Z,93.55
2022-08-17T00:30:52.739Z,93.19
2022-08-17T00:33:23.770Z,92.72
2022-08-17T00:35:51.962Z,92.08
2022-08-17T00:38:19.907Z,92.47
2022-08-17T00:40:50.375Z,92.11
2022-08-17T00:43:22.552Z,91.91
2022-08-17T00:45:51.494Z,92.62
2022-08-17T00:48:29.875Z,92.10
2022-08-17T00:51:02.806Z,91.68
2022-08-17T00:53:32.958Z,91.96
2022-08-17T00:56:03.116Z,92.41
2022-08-17T00:58:36.248Z,91.96
2022-08-17T01:01:06.731Z,92.02
2022-08-17T01:03:34.530Z,92.05
2022-08-17T01:06:04.384Z,91.98
2022-08-17T01:08:33.408Z,92.15
2022-08-17T01:11:04.036Z,92.95
2022-08-17T01:13:39.750Z,93.29
2022-08-17T01:16:15.851Z,93.72
2022-08-17T01:18:44.155Z,93.70
2022-08-17T01:21:15.607Z,93.80
2022-08-17T01:23:44.540Z,93.98
2022-08-17T01:26:12.103Z,93.97
2022-08-17T01:28:54.289Z,93.61
2022-08-17T01:31:25.459Z,93.04
2022-08-17T01:33:53.441Z,93.36
2022-08-17T01:36:21.366Z,92.85
2022-08-17T01:38:50.406Z,92.75
2022-08-17T01:41:18.392Z,93.40
2022-08-17T01:43:49.300Z,93.67
2022-08-17T01:46:20.975Z,92.51
2022-08-17T01:48:48.825Z,93.14
2022-08-17T01:51:16.986Z,93.08
2022-08-17T01:53:48.928Z,93.54
2022-08-17T01:56:20.904Z,94.61
2022-08-17T01:58:48.641Z,93.75
2022-08-17T02:01:17.823Z,93.70
2022-08-17T02:03:56.256Z,93.72
2022-08-17T02:06:31.237Z,94.76
2022-08-17T02:09:16.605Z,94.17
2022-08-17T02:11:46.431Z,94.41
2022-08-17T02:14:14.577Z,94.16
2022-08-17T02:16:42.560Z,94.57
2022-08-17T02:19:15.531Z,95.37
2022-08-17T02:21:45.218Z,95.68
2022-08-17T02:24:16.959Z,95.61
2022-08-17T02:26:46.806Z,96.64
2022-08-17T02:29:15.070Z,95.76
2022-08-17T02:31:42.906Z,96.05
2022-08-17T02:34:10.841Z,96.17
2022-08-17T02:36:38.868Z,95.79
2022-08-17T02:39:09.418Z,95.74
2022-08-17T02:41:37.350Z,96.14
2022-08-17T02:44:06.741Z,96.23
2022-08-17T02:46:34.333Z,95.86
2022-08-17T02:49:02.227Z,96.29
2022-08-17T02:51:29.862Z,95.81
2022-08-17T02:54:40.445Z,95.33
2022-08-17T02:56:45.238Z,95.02
2022-08-17T02:59:14.165Z,94.87
2022-08-17T03:01:41.702Z,95.83
2022-08-17T03:04:09.482Z,95.33
2022-08-17T03:06:37.348Z,96.90
2022-08-17T03:09:05.231Z,97.45
2022-08-17T03:11:32.785Z,98.56
2022-08-17T03:14:00.318Z,98.99
2022-08-17T03:16:29.186Z,98.81
2022-08-17T03:18:56.703Z,98.75
2022-08-17T03:21:24.407Z,97.87
2022-08-17T03:23:54.379Z,97.74
2022-08-17T03:26:22.269Z,98.42
2022-08-17T03:28:49.846Z,98.23
2022-08-17T03:31:18.286Z,98.49
2022-08-17T03:33:47.223Z,97.89
2022-08-17T03:36:14.895Z,98.26
2022-08-17T03:38:42.431Z,97.83
2022-08-17T03:41:13.804Z,97.78
2022-08-17T03:43:41.339Z,98.11
2022-08-17T03:46:28.310Z,98.58
2022-08-17T03:49:20.771Z,97.66
2022-08-17T03:52:05.873Z,97.47
2022-08-17T03:54:51.221Z,97.58
2022-08-17T03:57:19.017Z,97.15
2022-08-17T03:59:46.619Z,98.04
2022-08-17T04:02:18.959Z,97.72
2022-08-17T04:04:50.551Z,97.45
2022-08-17T04:07:18.378Z,98.77
2022-08-17T04:09:45.920Z,97.99
2022-08-17T04:12:15.733Z,97.93
2022-08-17T04:14:53.030Z,98.14
2022-08-17T04:17:24.044Z,98.49
2022-08-17T04:19:53.287Z,97.80
2022-08-17T04:22:30.099Z,98.14
2022-08-17T04:25:03.226Z,98.13
2022-08-17T04:27:30.761Z,98.04
2022-08-17T04:29:58.422Z,97.89
2022-08-17T04:33:03.902Z,99.20
2022-08-17T04:35:19.063Z,99.21
2022-08-17T04:37:47.374Z,99.67
2022-08-17T04:40:32.758Z,99.35
2022-08-17T04:43:04.959Z,99.46
2022-08-17T04:45:32.798Z,99.41
2022-08-17T04:48:01.756Z,99.72
2022-08-17T04:50:30.901Z,99.25
2022-08-17T04:52:58.696Z,99.60
2022-08-17T04:55:26.695Z,99.31
2022-08-17T04:57:54.191Z,99.33
2022-08-17T05:00:21.955Z,99.74
2022-08-17T05:02:51.152Z,99.41
2022-08-17T05:05:20.815Z,99.99
2022-08-17T05:07:52.281Z,100.00
2022-08-17T05:10:19.985Z,99.65
2022-08-17T05:12:47.593Z,99.67
2022-08-17T05:15:16.211Z,99.57
2022-08-17T05:17:43.825Z,99.48
2022-08-17T05:20:12.342Z,99.40
2022-08-17T05:22:51.106Z,98.81
2022-08-17T05:25:23.936Z,98.28
2022-08-17T05:27:54.085Z,98.67
2022-08-17T05:30:22.193Z,97.47
2022-08-17T05:32:54.492Z,96.87
2022-08-17T05:35:22.951Z,96.07
2022-08-17T05:37:52.214Z,93.89
2022-08-17T05:40:21.319Z,94.81
2022-08-17T05:42:49.031Z,95.34
2022-08-17T05:45:28.096Z,95.30
2022-08-17T05:48:07.196Z,93.63
2022-08-17T05:50:39.629Z,92.61
2022-08-17T05:53:11.934Z,92.20
2022-08-17T05:55:47.108Z,89.83
2022-08-17T05:58:21.190Z,87.83
2022-08-17T06:00:52.991Z,86.92
2022-08-17T06:03:30.515Z,85.61
2022-08-17T06:06:07.286Z,82.82
2022-08-17T06:08:43.155Z,84.66
2022-08-17T06:11:17.036Z,84.59
2022-08-17T06:14:06.288Z,83.19
2022-08-17T06:16:37.244Z,82.61
2022-08-17T06:19:07.529Z,80.73
2022-08-17T06:21:37.275Z,79.74
2022-08-17T06:24:09.559Z,79.78
2022-08-17T06:26:43.036Z,78.47
2022-08-17T06:29:23.467Z,75.90
2022-08-17T06:31:54.973Z,73.41
2022-08-17T06:34:22.747Z,74.76
2022-08-17T06:36:56.293Z,73.78
2022-08-17T06:39:33.861Z,72.29
2022-08-17T06:42:09.351Z,70.27
2022-08-17T06:45:02.502Z,69.83
2022-08-17T06:47:34.118Z,71.32
2022-08-17T06:50:08.711Z,68.49
2022-08-17T06:52:46.362Z,69.74
2022-08-17T06:55:21.209Z,70.33
2022-08-17T06:57:52.829Z,69.10
2022-08-17T07:00:23.157Z,66.84
2022-08-17T07:02:55.217Z,64.58
2022-08-17T07:05:27.070Z,64.12
2022-08-17T07:08:03.603Z,61.96
2022-08-17T07:10:37.705Z,61.78
2022-08-17T07:13:15.926Z,61.49
2022-08-17T07:15:43.982Z,61.21
2022-08-17T07:18:11.787Z,61.71
2022-08-17T07:20:42.698Z,62.41
2022-08-17T07:23:19.537Z,60.20
2022-08-17T07:25:48.562Z,57.69
2022-08-17T07:28:22.841Z,58.68
2022-08-17T07:30:53.287Z,58.37
2022-08-17T07:33:23.725Z,59.99
2022-08-17T07:35:52.034Z,58.14
2022-08-17T07:38:24.678Z,58.00
2022-08-17T07:41:04.584Z,56.68
2022-08-17T07:43:33.811Z,55.97
2022-08-17T07:46:30.323Z,57.68
2022-08-17T07:48:59.478Z,53.30
2022-08-17T07:51:30.134Z,54.63
2022-08-17T07:54:13.499Z,55.46
2022-08-17T07:56:46.246Z,53.37
2022-08-17T07:59:17.987Z,53.02
2022-08-17T08:02:05.421Z,52.00
2022-08-17T08:04:59.212Z,52.16
2022-08-17T08:07:26.710Z,50.11
2022-08-17T08:10:02.412Z,50.78
2022-08-17T08:12:34.345Z,51.83
2022-08-17T08:15:06.588Z,51.12
2022-08-17T08:17:37.378Z,51.08
2022-08-17T08:20:51.106Z,53.70
2022-08-17T08:23:09.669Z,54.39
2022-08-17T08:25:45.572Z,54.85
2022-08-17T08:28:22.897Z,56.04
2022-08-17T08:30:55.330Z,54.03
2022-08-17T08:33:35.726Z,56.35
2022-08-17T08:36:10.760Z,56.88
2022-08-17T08:38:47.260Z,56.75
2022-08-17T08:41:26.137Z,55.38
2022-08-17T08:44:01.806Z,53.37
2022-08-17T08:46:32.232Z,54.54
2022-08-17T08:50:02.737Z,54.25
2022-08-17T08:52:41.498Z,51.61
2022-08-17T08:55:12.940Z,49.62
2022-08-17T08:57:45.372Z,48.69
2022-08-17T09:00:18.959Z,49.33
2022-08-17T09:03:50.890Z,48.53
2022-08-17T09:06:38.788Z,48.64
2022-08-17T09:09:17.270Z,48.83
2022-08-17T09:12:01.901Z,52.19
2022-08-17T09:14:46.662Z,51.46
2022-08-17T09:17:19.117Z,51.87
2022-08-17T09:19:49.807Z,52.39
2022-08-17T09:22:31.603Z,51.00
2022-08-17T09:25:06.792Z,49.05
2022-08-17T09:27:39.330Z,48.85
2022-08-17T09:30:10.739Z,45.52
2022-08-17T09:32:41.673Z,45.42
2022-08-17T09:35:13.890Z,44.97
2022-08-17T09:37:51.456Z,45.97
2022-08-17T09:40:22.549Z,43.56
2022-08-17T09:42:53.758Z,45.72
2022-08-17T09:45:27.989Z,43.37
2022-08-17T09:48:00.939Z,44.98
2022-08-17T09:51:03.288Z,43.50
2022-08-17T09:53:19.906Z,43.66
2022-08-17T09:56:12.235Z,44.04
2022-08-17T09:58:51.475Z,43.29
2022-08-17T10:01:29.017Z,42.46
2022-08-17T10:04:12.091Z,44.15
2022-08-17T10:06:49.960Z,43.82
2022-08-17T10:10:58.757Z,43.63
2022-08-17T10:13:35.328Z,43.26
2022-08-17T10:16:08.693Z,44.53
2022-08-17T10:18:46.787Z,43.75
2022-08-17T10:21:33.021Z,43.65
2022-08-17T10:24:25.019Z,43.95
2022-08-17T10:26:56.286Z,42.06
2022-08-17T10:29:28.965Z,44.32
2022-08-17T10:32:00.509Z,45.68
2022-08-17T10:34:45.136Z,44.48
2022-08-17T10:37:33.938Z,44.61
2022-08-17T10:40:11.799Z,43.51
2022-08-17T10:42:48.833Z,44.38
2022-08-17T10:45:19.496Z,43.55
2022-08-17T10:48:04.727Z,44.11
2022-08-17T10:50:58.523Z,42.59
2022-08-17T10:53:55.194Z,43.24
2022-08-17T10:56:25.834Z,42.47
2022-08-17T10:58:57.094Z,43.12
2022-08-17T11:02:05.696Z,42.45
2022-08-17T11:04:47.706Z,43.15
2022-08-17T11:07:20.734Z,43.87
2022-08-17T11:10:02.786Z,45.16
2022-08-17T11:12:37.878Z,44.80
2022-08-17T11:15:19.535Z,45.39
2022-08-17T11:18:08.633Z,44.50
2022-08-17T11:20:58.247Z,45.09
2022-08-17T11:23:50.211Z,44.78
2022-08-17T11:26:26.093Z,45.55
2022-08-17T11:28:58.714Z,44.65
2022-08-17T11:31:38.806Z,46.34
2022-08-17T11:34:14.577Z,44.27
2022-08-17T11:37:20.822Z,44.34
2022-08-17T11:40:07.491Z,45.15
2022-08-17T11:42:47.247Z,45.33
2022-08-17T11:45:34.021Z,45.75
2022-08-17T11:48:28.342Z,44.44
2022-08-17T11:51:31.799Z,46.29
2022-08-17T11:54:31.029Z,45.71
2022-08-17T11:56:52.787Z,43.64
2022-08-17T11:59:58.592Z,43.79
2022-08-17T12:02:47.426Z,41.81
2022-08-17T12:05:30.554Z,42.67
2022-08-17T12:08:07.119Z,40.05
2022-08-17T12:10:37.083Z,39.72
2022-08-17T12:13:08.006Z,41.83
2022-08-17T12:15:38.553Z,41.29
2022-08-17T12:18:06.337Z,41.54
2022-08-17T12:20:37.985Z,42.32
2022-08-17T12:23:11.023Z,43.23
2022-08-17T12:25:43.153Z,43.17
2022-08-17T12:28:21.692Z,44.22
2022-08-17T12:30:51.941Z,45.07
2022-08-17T12:33:27.826Z,44.46
2022-08-17T12:35:59.915Z,43.98
2022-08-17T12:38:33.025Z,45.22
2022-08-17T12:41:22.231Z,45.80
2022-08-17T12:43:56.604Z,44.95
2022-08-17T12:46:24.118Z,46.47
2022-08-17T12:48:58.941Z,47.21
2022-08-17T12:51:29.888Z,47.77
2022-08-17T12:53:57.479Z,47.96
2022-08-17T12:56:25.010Z,47.88
2022-08-17T12:58:55.446Z,47.43
2022-08-17T13:01:24.916Z,47.94
2022-08-17T13:03:59.530Z,47.92
2022-08-17T13:06:30.146Z,48.40
2022-08-17T13:08:57.806Z,48.19
2022-08-17T13:11:26.243Z,49.37
2022-08-17T13:13:56.066Z,49.22
2022-08-17T13:16:26.433Z,48.95
2022-08-17T13:18:58.327Z,48.67
2022-08-17T13:21:28.545Z,47.74
2022-08-17T13:24:00.802Z,48.64
2022-08-17T13:26:32.712Z,49.12
2022-08-17T13:29:01.066Z,49.75
2022-08-17T13:31:39.443Z,49.80
2022-08-17T13:34:34.181Z,50.77
2022-08-17T13:37:26.432Z,50.92
2022-08-17T13:39:57.451Z,47.16
2022-08-17T13:42:50.242Z,44.53
2022-08-17T13:45:38.952Z,44.15
2022-08-17T13:48:13.761Z,44.15
2022-08-17T13:50:44.977Z,44.03
2022-08-17T13:53:20.947Z,44.11
2022-08-17T13:55:51.806Z,44.26
2022-08-17T13:58:24.157Z,43.46
2022-08-17T14:00:52.676Z,44.40
2022-08-17T14:03:21.175Z,43.24
2022-08-17T14:05:50.026Z,44.29
2022-08-17T14:08:19.289Z,44.00
2022-08-17T14:10:57.695Z,42.77
2022-08-17T14:13:25.319Z,44.07
2022-08-17T14:15:55.985Z,43.26
2022-08-17T14:18:42.052Z,42.05
2022-08-17T14:21:12.304Z,42.87
2022-08-17T14:23:40.790Z,44.03
2022-08-17T14:26:12.434Z,43.29
2022-08-17T14:28:54.420Z,43.79
2022-08-17T14:31:22.490Z,42.86
2022-08-17T14:33:49.970Z,42.11
2022-08-17T14:36:17.520Z,41.60
2022-08-17T14:38:45.289Z,41.39
2022-08-17T14:41:18.734Z,38.10
2022-08-17T14:43:49.437Z,38.09
2022-08-17T14:46:16.935Z,39.88
2022-08-17T14:48:44.448Z,37.43
2022-08-17T14:51:11.961Z,38.73
2022-08-17T14:53:39.479Z,39.42
2022-08-17T14:56:07.790Z,40.51
2022-08-17T14:58:36.654Z,38.81
2022-08-17T15:01:07.619Z,37.14
2022-08-17T15:03:39.923Z,34.11
2022-08-17T15:06:09.059Z,35.35
2022-08-17T15:08:37.118Z,35.27
2022-08-17T15:11:05.062Z,37.96
2022-08-17T15:13:32.584Z,40.04
2022-08-17T15:16:02.362Z,40.37
2022-08-17T15:18:30.413Z,42.45
2022-08-17T15:20:58.143Z,40.54
2022-08-17T15:23:27.410Z,40.26
2022-08-17T15:25:55.893Z,41.53
2022-08-17T15:28:23.702Z,40.32
2022-08-17T15:30:51.390Z,39.36
2022-08-17T15:33:23.733Z,37.70
2022-08-17T15:35:52.149Z,36.50
2022-08-17T15:38:20.079Z,37.86
2022-08-17T15:40:49.822Z,37.77
2022-08-17T15:43:27.107Z,37.50
2022-08-17T15:46:00.460Z,38.27
2022-08-17T15:48:41.202Z,38.08
2022-08-17T15:51:10.526Z,38.51
2022-08-17T15:53:38.926Z,39.77
2022-08-17T15:56:06.831Z,40.20
2022-08-17T15:58:34.842Z,40.00
2022-08-17T16:01:16.481Z,41.21
2022-08-17T16:04:04.821Z,42.25
2022-08-17T16:06:35.427Z,42.51
2022-08-17T16:09:02.915Z,40.95
2022-08-17T16:11:30.421Z,41.37
2022-08-17T16:13:57.883Z,41.71
2022-08-17T16:16:26.009Z,42.04
2022-08-17T16:18:59.176Z,41.71
2022-08-17T16:21:27.411Z,43.98
2022-08-17T16:23:57.989Z,43.56
2022-08-17T16:26:26.150Z,43.98
2022-08-17T16:28:54.274Z,44.79
2022-08-17T16:31:22.026Z,45.01
2022-08-17T16:34:08.998Z,45.54
2022-08-17T16:36:39.982Z,46.69
2022-08-17T16:39:07.494Z,52.35
2022-08-17T16:41:44.961Z,48.43
2022-08-17T16:44:15.446Z,48.41
2022-08-17T16:46:45.773Z,49.41
2022-08-17T16:49:35.297Z,56.02
2022-08-17T16:52:03.965Z,53.63
2022-08-17T16:54:31.543Z,52.51
2022-08-17T16:56:59.113Z,52.93
2022-08-17T16:59:30.796Z,53.69
2022-08-17T17:02:10.771Z,50.89
2022-08-17T17:04:43.281Z,53.22
2022-08-17T17:07:24.313Z,54.75
2022-08-17T17:09:55.278Z,55.19
2022-08-17T17:12:59.442Z,56.02
2022-08-17T17:15:11.905Z,54.83
2022-08-17T17:17:40.491Z,55.36
2022-08-17T17:20:11.535Z,56.12
2022-08-17T17:22:47.182Z,56.22
2022-08-17T17:25:20.642Z,55.97
2022-08-17T17:27:51.546Z,54.15
2022-08-17T17:30:24.030Z,59.83
2022-08-17T17:32:54.014Z,64.13
2022-08-17T17:35:26.478Z,63.90
2022-08-17T17:37:58.063Z,62.76
2022-08-17T17:40:30.230Z,64.38
2022-08-17T17:43:14.244Z,64.97
2022-08-17T17:45:52.030Z,63.92
2022-08-17T17:48:19.594Z,65.00
2022-08-17T17:50:54.450Z,66.25
2022-08-17T17:53:41.714Z,67.67
2022-08-17T17:56:19.615Z,67.36
2022-08-17T17:59:12.709Z,67.68
2022-08-17T18:01:47.593Z,65.63
2022-08-17T18:04:21.980Z,66.11
2022-08-17T18:06:59.240Z,67.94
2022-08-17T18:09:36.837Z,69.52
2022-08-17T18:12:19.642Z,70.41
2022-08-17T18:14:58.436Z,70.41
2022-08-17T18:17:26.402Z,69.60
2022-08-17T18:19:55.244Z,70.93
2022-08-17T18:22:24.137Z,72.56
2022-08-17T18:24:55.959Z,73.35
2022-08-17T18:27:26.569Z,72.59
2022-08-17T18:29:55.905Z,73.42
2022-08-17T18:32:38.283Z,72.93
2022-08-17T18:35:28.878Z,71.92
2022-08-17T18:37:58.299Z,73.18
2022-08-17T18:40:37.408Z,75.15
2022-08-17T18:43:11.593Z,66.27
2022-08-17T18:45:42.975Z,75.41
2022-08-17T18:48:33.027Z,73.55
2022-08-17T18:51:02.772Z,76.24
2022-08-17T18:53:38.993Z,75.42
2022-08-17T18:56:26.248Z,74.86
2022-08-17T18:59:04.760Z,76.93
2022-08-17T19:01:52.469Z,77.21
2022-08-17T19:04:38.058Z,75.47
2022-08-17T19:07:13.573Z,75.20
2022-08-17T19:09:45.019Z,76.16
2022-08-17T19:12:27.309Z,75.44
2022-08-17T19:14:56.641Z,75.87
2022-08-17T19:17:28.222Z,76.23
2022-08-17T19:20:00.965Z,76.69
2022-08-17T19:22:31.267Z,75.27
2022-08-17T19:25:08.495Z,77.16
2022-08-17T19:27:46.312Z,76.72
2022-08-17T19:30:16.732Z,77.91
2022-08-17T19:32:44.415Z,77.23
2022-08-17T19:35:17.378Z,78.59
2022-08-17T19:37:57.255Z,78.63
2022-08-17T19:40:51.710Z,80.38
2022-08-17T19:43:24.797Z,80.38
2022-08-17T19:46:01.592Z,81.02
2022-08-17T19:48:40.729Z,81.41
2022-08-17T19:51:12.710Z,81.69
2022-08-17T19:54:04.350Z,82.05
2022-08-17T19:56:37.169Z,82.31
2022-08-17T19:59:12.877Z,82.87
2022-08-17T20:01:45.759Z,82.98
2022-08-17T20:04:17.745Z,83.06
2022-08-17T20:06:49.175Z,83.38
2022-08-17T20:09:21.505Z,84.14
2022-08-17T20:11:52.112Z,84.79
2022-08-17T20:14:23.054Z,85.17
2022-08-17T20:16:50.991Z,85.74
2022-08-17T20:19:23.825Z,86.77
2022-08-17T20:21:55.263Z,86.92
2022-08-17T20:24:27.174Z,87.49
2022-08-17T20:26:58.416Z,87.54
2022-08-17T20:29:40.340Z,87.55
2022-08-17T20:32:16.370Z,90.22
2022-08-17T20:34:46.614Z,90.41
2022-08-17T20:37:28.033Z,90.53
2022-08-17T20:40:23.546Z,90.70
2022-08-17T20:42:51.049Z,91.21
2022-08-17T20:46:06.166Z,91.64
2022-08-17T20:48:39.140Z,90.79
2022-08-17T20:51:19.420Z,90.61
2022-08-17T20:54:34.190Z,91.33
2022-08-17T20:57:02.469Z,91.95
2022-08-17T21:00:04.132Z,92.55
2022-08-17T21:02:32.252Z,95.22
2022-08-17T21:05:08.283Z,95.21
2022-08-17T21:07:55.539Z,94.28
2022-08-17T21:10:35.413Z,93.03
2022-08-17T21:13:28.189Z,93.46
2022-08-17T21:15:59.850Z,93.11
2022-08-17T21:18:33.197Z,92.91
2022-08-17T21:21:17.607Z,93.23
2022-08-17T21:24:11.874Z,93.47
2022-08-17T21:26:51.128Z,93.93
2022-08-17T21:29:30.925Z,93.48
2022-08-17T21:32:19.196Z,93.40
2022-08-17T21:35:23.204Z,93.69
2022-08-17T21:37:58.403Z,94.18
2022-08-17T21:40:28.886Z,93.08
2022-08-17T21:42:59.013Z,93.61
2022-08-17T21:45:28.846Z,93.23
2022-08-17T21:48:14.029Z,92.74
2022-08-17T21:50:44.111Z,93.01
2022-08-17T21:53:17.963Z,92.17
2022-08-17T21:55:50.267Z,91.93
2022-08-17T21:58:28.750Z,91.98
2022-08-17T22:01:22.050Z,91.93
2022-08-17T22:03:56.775Z,91.74
2022-08-17T22:06:27.738Z,92.23
2022-08-17T22:09:02.229Z,91.83
2022-08-17T22:11:29.806Z,92.85
2022-08-17T22:14:05.348Z,92.69
2022-08-17T22:16:33.639Z,92.55
2022-08-17T22:19:01.237Z,94.15
2022-08-17T22:21:28.911Z,95.84
2022-08-17T22:24:05.321Z,96.40
2022-08-17T22:27:00.054Z,96.69
2022-08-17T22:29:57.457Z,96.35
2022-08-17T22:32:34.339Z,95.61
2022-08-17T22:35:34.377Z,96.02
2022-08-17T22:38:32.526Z,96.32
2022-08-17T22:41:27.527Z,96.49
2022-08-17T22:43:57.312Z,96.61
2022-08-17T22:46:25.487Z,97.01
2022-08-17T22:48:56.666Z,96.47
2022-08-17T22:51:27.071Z,95.79
2022-08-17T22:54:15.305Z,97.19
2022-08-17T22:57:08.370Z,97.78
2022-08-17T22:59:43.511Z,98.53
2022-08-17T23:02:19.467Z,99.30
2022-08-17T23:04:51.086Z,98.69
2022-08-17T23:07:19.850Z,98.92
2022-08-17T23:09:47.525Z,98.86
2022-08-17T23:12:19.697Z,99.38
2022-08-17T23:14:51.181Z,99.56
2022-08-17T23:17:18.721Z,99.40
2022-08-17T23:19:46.290Z,99.21
2022-08-17T23:22:13.802Z,98.75
2022-08-17T23:24:48.878Z,98.56
2022-08-17T23:27:18.358Z,98.64
2022-08-17T23:29:47.030Z,99.04
2022-08-17T23:32:16.693Z,98.91
2022-08-17T23:34:48.071Z,98.60
2022-08-17T23:37:16.696Z,99.42
2022-08-17T23:39:45.406Z,100.00
2022-08-17T23:42:16.737Z,99.83
2022-08-17T23:44:45.595Z,99.88
2022-08-17T23:47:13.183Z,100.00
2022-08-17T23:49:41.263Z,100.00
2022-08-17T23:52:12.485Z,99.45
2022-08-17T23:54:44.674Z,99.42
2022-08-17T23:57:13.845Z,99.69
2022-08-17T23:59:43.733Z,100.00
